sensor_id;sensor_type;location;lat;lon;timestamp;pressure;altitude;pressure_sealevel;temperature;humidity
72061;BME280;59925;52.136;5.420;2022-12-01T00:02:16;103017.94;;;4.25;94.35
72061;BME280;59925;52.136;5.420;2022-12-01T00:04:43;103015.94;;;4.27;94.96
72061;BME280;59925;52.136;5.420;2022-12-01T00:07:09;103009.25;;;4.32;94.73
72061;BME280;59925;52.136;5.420;2022-12-01T00:09:36;103011.91;;;4.32;94.69
72061;BME280;59925;52.136;5.420;2022-12-01T00:12:21;103010.75;;;4.34;95.03
72061;BME280;59925;52.136;5.420;2022-12-01T00:14:47;103004.44;;;4.35;94.89
72061;BME280;59925;52.136;5.420;2022-12-01T00:17:20;103013.06;;;4.37;94.84
72061;BME280;59925;52.136;5.420;2022-12-01T00:19:46;103012.22;;;4.37;94.87
72061;BME280;59925;52.136;5.420;2022-12-01T00:22:13;103013.72;;;4.39;94.56
72061;BME280;59925;52.136;5.420;2022-12-01T00:24:40;103010.06;;;4.40;95.18
72061;BME280;59925;52.136;5.420;2022-12-01T00:27:06;103011.91;;;4.40;94.94
72061;BME280;59925;52.136;5.420;2022-12-01T00:29:32;103004.94;;;4.39;94.61
72061;BME280;59925;52.136;5.420;2022-12-01T00:31:59;103012.06;;;4.38;95.02
72061;BME280;59925;52.136;5.420;2022-12-01T00:34:25;103010.06;;;4.40;94.67
72061;BME280;59925;52.136;5.420;2022-12-01T00:36:53;103012.38;;;4.43;95.21
72061;BME280;59925;52.136;5.420;2022-12-01T00:39:19;103015.03;;;4.43;94.81
72061;BME280;59925;52.136;5.420;2022-12-01T00:41:46;103010.53;;;4.44;94.57
72061;BME280;59925;52.136;5.420;2022-12-01T00:44:12;103009.72;;;4.43;94.76
72061;BME280;59925;52.136;5.420;2022-12-01T00:46:39;103008.53;;;4.46;95.14
72061;BME280;59925;52.136;5.420;2022-12-01T00:49:05;103007.72;;;4.45;94.80
72061;BME280;59925;52.136;5.420;2022-12-01T00:51:31;103005.72;;;4.48;95.04
72061;BME280;59925;52.136;5.420;2022-12-01T00:53:58;103008.38;;;4.48;94.66
72061;BME280;59925;52.136;5.420;2022-12-01T00:56:24;103011.69;;;4.50;94.99
72061;BME280;59925;52.136;5.420;2022-12-01T00:58:51;103012.50;;;4.50;94.62
72061;BME280;59925;52.136;5.420;2022-12-01T01:01:17;103009.03;;;4.50;94.53
72061;BME280;59925;52.136;5.420;2022-12-01T01:03:44;103016.81;;;4.51;94.86
72061;BME280;59925;52.136;5.420;2022-12-01T01:06:11;103008.00;;;4.51;95.17
72061;BME280;59925;52.136;5.420;2022-12-01T01:08:38;103011.31;;;4.53;95.24
72061;BME280;59925;52.136;5.420;2022-12-01T01:11:05;103018.28;;;4.54;94.60
72061;BME280;59925;52.136;5.420;2022-12-01T01:13:32;103018.94;;;4.56;95.06
72061;BME280;59925;52.136;5.420;2022-12-01T01:16:04;103016.28;;;4.56;94.84
72061;BME280;59925;52.136;5.420;2022-12-01T01:18:32;103024.25;;;4.56;94.65
72061;BME280;59925;52.136;5.420;2022-12-01T01:21:01;103025.09;;;4.56;94.74
72061;BME280;59925;52.136;5.420;2022-12-01T01:23:28;103022.25;;;4.58;95.06
72061;BME280;59925;52.136;5.420;2022-12-01T01:26:07;103020.25;;;4.60;94.66
72061;BME280;59925;52.136;5.420;2022-12-01T01:28:34;103023.91;;;4.59;94.82
72061;BME280;59925;52.136;5.420;2022-12-01T01:31:05;103021.91;;;4.61;94.73
72061;BME280;59925;52.136;5.420;2022-12-01T01:33:32;103027.03;;;4.63;94.38
72061;BME280;59925;52.136;5.420;2022-12-01T01:35:59;103030.34;;;4.65;94.77
72061;BME280;59925;52.136;5.420;2022-12-01T01:38:27;103031.81;;;4.67;94.63
72061;BME280;59925;52.136;5.420;2022-12-01T01:40:54;103028.16;;;4.68;95.11
72061;BME280;59925;52.136;5.420;2022-12-01T01:46:06;103030.16;;;4.66;94.75
72061;BME280;59925;52.136;5.420;2022-12-01T01:48:34;103031.81;;;4.67;94.42
72061;BME280;59925;52.136;5.420;2022-12-01T01:51:02;103029.16;;;4.67;94.35
72061;BME280;59925;52.136;5.420;2022-12-01T01:53:29;103035.13;;;4.69;94.67
72061;BME280;59925;52.136;5.420;2022-12-01T01:55:56;103036.78;;;4.70;94.46
72061;BME280;59925;52.136;5.420;2022-12-01T01:58:24;103034.94;;;4.71;94.54
72061;BME280;59925;52.136;5.420;2022-12-01T02:00:51;103033.13;;;4.71;94.74
72061;BME280;59925;52.136;5.420;2022-12-01T02:03:18;103037.59;;;4.71;94.71
72061;BME280;59925;52.136;5.420;2022-12-01T02:05:45;103029.81;;;4.69;94.54
72061;BME280;59925;52.136;5.420;2022-12-01T02:08:12;103030.63;;;4.70;94.29
72061;BME280;59925;52.136;5.420;2022-12-01T02:17:01;103026.16;;;4.70;94.86
72061;BME280;59925;52.136;5.420;2022-12-01T02:25:51;103022.31;;;4.73;94.32
72061;BME280;59925;52.136;5.420;2022-12-01T02:28:24;103022.16;;;4.74;94.36
72061;BME280;59925;52.136;5.420;2022-12-01T02:31:05;103013.19;;;4.75;94.69
72061;BME280;59925;52.136;5.420;2022-12-01T02:36:17;103019.13;;;4.78;94.01
72061;BME280;59925;52.136;5.420;2022-12-01T02:39:09;103019.97;;;4.78;94.47
72061;BME280;59925;52.136;5.420;2022-12-01T02:41:44;103016.66;;;4.76;93.91
72061;BME280;59925;52.136;5.420;2022-12-01T02:44:17;103018.50;;;4.75;93.87
72061;BME280;59925;52.136;5.420;2022-12-01T02:46:57;103020.50;;;4.73;94.13
72061;BME280;59925;52.136;5.420;2022-12-01T02:49:28;103019.66;;;4.73;94.06
72061;BME280;59925;52.136;5.420;2022-12-01T02:51:57;103025.81;;;4.73;94.18
72061;BME280;59925;52.136;5.420;2022-12-01T02:54:24;103014.34;;;4.73;94.40
72061;BME280;59925;52.136;5.420;2022-12-01T02:56:53;103031.13;;;4.73;94.41
72061;BME280;59925;52.136;5.420;2022-12-01T02:59:20;103030.13;;;4.74;93.81
72061;BME280;59925;52.136;5.420;2022-12-01T03:02:03;103028.47;;;4.73;94.35
72061;BME280;59925;52.136;5.420;2022-12-01T03:18:47;103031.13;;;4.73;94.19
72061;BME280;59925;52.136;5.420;2022-12-01T03:21:24;103031.94;;;4.74;93.86
72061;BME280;59925;52.136;5.420;2022-12-01T03:23:58;103029.13;;;4.75;93.95
72061;BME280;59925;52.136;5.420;2022-12-01T03:26:28;103032.59;;;4.76;93.88
72061;BME280;59925;52.136;5.420;2022-12-01T03:29:06;103026.28;;;4.77;93.95
72061;BME280;59925;52.136;5.420;2022-12-01T03:31:38;103023.63;;;4.77;93.96
72061;BME280;59925;52.136;5.420;2022-12-01T03:34:14;103025.44;;;4.76;94.17
72061;BME280;59925;52.136;5.420;2022-12-01T03:37:04;103029.94;;;4.76;94.11
72061;BME280;59925;52.136;5.420;2022-12-01T03:39:33;103016.00;;;4.74;94.03
72061;BME280;59925;52.136;5.420;2022-12-01T03:42:15;103021.97;;;4.76;93.79
72061;BME280;59925;52.136;5.420;2022-12-01T03:44:55;103027.94;;;4.78;93.84
72061;BME280;59925;52.136;5.420;2022-12-01T03:47:25;103026.47;;;4.75;94.06
72061;BME280;59925;52.136;5.420;2022-12-01T03:49:54;103031.13;;;4.73;93.45
72061;BME280;59925;52.136;5.420;2022-12-01T03:52:32;103032.94;;;4.73;94.06
72061;BME280;59925;52.136;5.420;2022-12-01T03:55:09;103030.63;;;4.70;93.90
72061;BME280;59925;52.136;5.420;2022-12-01T03:57:43;103027.16;;;4.69;93.76
72061;BME280;59925;52.136;5.420;2022-12-01T04:00:12;103029.16;;;4.67;93.56
72061;BME280;59925;52.136;5.420;2022-12-01T04:02:40;103025.69;;;4.67;93.85
72061;BME280;59925;52.136;5.420;2022-12-01T04:05:07;103025.84;;;4.65;93.99
72061;BME280;59925;52.136;5.420;2022-12-01T04:07:37;103028.03;;;4.62;93.45
72061;BME280;59925;52.136;5.420;2022-12-01T04:10:05;103030.03;;;4.59;93.69
72061;BME280;59925;52.136;5.420;2022-12-01T04:12:32;103026.72;;;4.57;93.45
72061;BME280;59925;52.136;5.420;2022-12-01T04:15:07;103025.25;;;4.55;93.36
72061;BME280;59925;52.136;5.420;2022-12-01T04:17:33;103027.25;;;4.53;93.66
72061;BME280;59925;52.136;5.420;2022-12-01T04:20:00;103027.44;;;4.51;93.60
72061;BME280;59925;52.136;5.420;2022-12-01T04:22:27;103036.22;;;4.52;93.56
72061;BME280;59925;52.136;5.420;2022-12-01T04:24:53;103036.22;;;4.52;93.73
72061;BME280;59925;52.136;5.420;2022-12-01T04:27:20;103033.56;;;4.52;93.75
72061;BME280;59925;52.136;5.420;2022-12-01T04:29:46;103030.91;;;4.52;93.77
72061;BME280;59925;52.136;5.420;2022-12-01T04:32:13;103036.22;;;4.52;93.66
72061;BME280;59925;52.136;5.420;2022-12-01T04:34:40;103036.22;;;4.52;93.58
72061;BME280;59925;52.136;5.420;2022-12-01T04:37:07;103033.56;;;4.52;93.84
72061;BME280;59925;52.136;5.420;2022-12-01T04:39:33;103040.72;;;4.51;93.97
72061;BME280;59925;52.136;5.420;2022-12-01T04:42:00;103039.53;;;4.54;94.04
72061;BME280;59925;52.136;5.420;2022-12-01T04:44:26;103038.53;;;4.55;93.79
72061;BME280;59925;52.136;5.420;2022-12-01T04:46:59;103035.22;;;4.53;93.69
72061;BME280;59925;52.136;5.420;2022-12-01T04:49:26;103042.19;;;4.54;93.67
72061;BME280;59925;52.136;5.420;2022-12-01T04:51:52;103038.72;;;4.53;93.50
72061;BME280;59925;52.136;5.420;2022-12-01T04:54:19;103036.88;;;4.54;93.79
72061;BME280;59925;52.136;5.420;2022-12-01T04:56:45;103033.22;;;4.55;93.50
72061;BME280;59925;52.136;5.420;2022-12-01T04:59:12;103045.69;;;4.54;93.82
72061;BME280;59925;52.136;5.420;2022-12-01T05:01:38;103034.22;;;4.54;93.90
72061;BME280;59925;52.136;5.420;2022-12-01T05:04:06;103032.41;;;4.54;93.75
72061;BME280;59925;52.136;5.420;2022-12-01T05:06:32;103040.38;;;4.54;93.48
72061;BME280;59925;52.136;5.420;2022-12-01T05:09:00;103031.75;;;4.52;93.76
72061;BME280;59925;52.136;5.420;2022-12-01T05:11:27;103034.22;;;4.54;93.79
72061;BME280;59925;52.136;5.420;2022-12-01T05:13:55;103034.56;;;4.51;94.09
72061;BME280;59925;52.136;5.420;2022-12-01T05:16:27;103036.75;;;4.47;94.05
72061;BME280;59925;52.136;5.420;2022-12-01T05:18:56;103034.28;;;4.45;93.75
72061;BME280;59925;52.136;5.420;2022-12-01T05:21:43;103041.91;;;4.40;93.42
72061;BME280;59925;52.136;5.420;2022-12-01T05:24:10;103038.13;;;4.35;93.54
72061;BME280;59925;52.136;5.420;2022-12-01T05:26:38;103043.78;;;4.32;93.76
72061;BME280;59925;52.136;5.420;2022-12-01T05:29:05;103048.16;;;4.24;93.34
72061;BME280;59925;52.136;5.420;2022-12-01T05:31:31;103051.31;;;4.20;93.55
72061;BME280;59925;52.136;5.420;2022-12-01T05:33:58;103054.50;;;4.15;93.87
72061;BME280;59925;52.136;5.420;2022-12-01T05:36:24;103058.16;;;4.14;93.78
72061;BME280;59925;52.136;5.420;2022-12-01T05:38:51;103060.63;;;4.16;93.75
72061;BME280;59925;52.136;5.420;2022-12-01T05:41:17;103053.31;;;4.18;93.28
72061;BME280;59925;52.136;5.420;2022-12-01T05:43:43;103054.97;;;4.19;94.00
72061;BME280;59925;52.136;5.420;2022-12-01T05:46:10;103045.16;;;4.19;93.66
72061;BME280;59925;52.136;5.420;2022-12-01T05:48:36;103052.13;;;4.20;93.90
72061;BME280;59925;52.136;5.420;2022-12-01T05:51:10;103054.63;;;4.22;93.91
72061;BME280;59925;52.136;5.420;2022-12-01T05:53:37;103044.81;;;4.22;94.50
72061;BME280;59925;52.136;5.420;2022-12-01T05:56:04;103047.31;;;4.24;93.81
72061;BME280;59925;52.136;5.420;2022-12-01T05:58:30;103050.63;;;4.26;94.23
72061;BME280;59925;52.136;5.420;2022-12-01T06:00:58;103047.97;;;4.26;93.88
72061;BME280;59925;52.136;5.420;2022-12-01T06:03:24;103041.19;;;4.23;94.26
72061;BME280;59925;52.136;5.420;2022-12-01T06:05:51;103037.53;;;4.24;94.20
72061;BME280;59925;52.136;5.420;2022-12-01T06:08:17;103041.34;;;4.22;94.02
72061;BME280;59925;52.136;5.420;2022-12-01T06:10:44;103040.84;;;4.18;93.96
72061;BME280;59925;52.136;5.420;2022-12-01T06:13:11;103037.91;;;4.13;94.24
72061;BME280;59925;52.136;5.420;2022-12-01T06:15:37;103039.56;;;4.06;94.13
72061;BME280;59925;52.136;5.420;2022-12-01T06:18:04;103046.75;;;3.97;93.47
72061;BME280;59925;52.136;5.420;2022-12-01T06:20:30;103047.75;;;3.88;93.72
72061;BME280;59925;52.136;5.420;2022-12-01T06:22:56;103052.91;;;3.81;93.51
72061;BME280;59925;52.136;5.420;2022-12-01T06:25:24;103060.56;;;3.76;93.83
72061;BME280;59925;52.136;5.420;2022-12-01T06:27:55;103058.41;;;3.71;93.86
72061;BME280;59925;52.136;5.420;2022-12-01T06:30:22;103056.25;;;3.66;93.67
72061;BME280;59925;52.136;5.420;2022-12-01T06:32:49;103062.25;;;3.60;93.37
72061;BME280;59925;52.136;5.420;2022-12-01T06:35:15;103063.88;;;3.53;93.50
72061;BME280;59925;52.136;5.420;2022-12-01T06:37:42;103062.75;;;3.47;93.35
72061;BME280;59925;52.136;5.420;2022-12-01T06:40:08;103050.97;;;3.42;93.92
72061;BME280;59925;52.136;5.420;2022-12-01T06:42:35;103061.09;;;3.38;93.73
72061;BME280;59925;52.136;5.420;2022-12-01T06:45:01;103065.06;;;3.34;93.72
72061;BME280;59925;52.136;5.420;2022-12-01T06:47:28;103066.56;;;3.28;93.47
72061;BME280;59925;52.136;5.420;2022-12-01T06:49:54;103065.06;;;3.26;93.82
72061;BME280;59925;52.136;5.420;2022-12-01T06:52:20;103062.75;;;3.22;93.54
72061;BME280;59925;52.136;5.420;2022-12-01T06:54:47;103063.41;;;3.16;93.44
72061;BME280;59925;52.136;5.420;2022-12-01T06:57:13;103072.50;;;3.14;93.52
72061;BME280;59925;52.136;5.420;2022-12-01T06:59:41;103072.19;;;3.09;94.04
72061;BME280;59925;52.136;5.420;2022-12-01T07:02:09;103073.00;;;3.01;93.66
72061;BME280;59925;52.136;5.420;2022-12-01T07:04:36;103085.41;;;3.00;93.49
72061;BME280;59925;52.136;5.420;2022-12-01T07:07:04;103085.75;;;2.97;93.94
72061;BME280;59925;52.136;5.420;2022-12-01T07:09:30;103086.88;;;2.95;93.38
72061;BME280;59925;52.136;5.420;2022-12-01T07:11:56;103085.22;;;2.94;94.08
72061;BME280;59925;52.136;5.420;2022-12-01T07:14:24;103084.56;;;2.91;94.00
72061;BME280;59925;52.136;5.420;2022-12-01T07:16:51;103085.22;;;2.85;94.31
72061;BME280;59925;52.136;5.420;2022-12-01T07:19:18;103089.03;;;2.83;94.29
72061;BME280;59925;52.136;5.420;2022-12-01T07:21:45;103097.13;;;2.81;93.97
72061;BME280;59925;52.136;5.420;2022-12-01T07:24:12;103099.28;;;2.78;94.52
72061;BME280;59925;52.136;5.420;2022-12-01T07:26:40;103104.75;;;2.76;94.63
72061;BME280;59925;52.136;5.420;2022-12-01T07:29:10;103106.84;;;2.72;94.22
72061;BME280;59925;52.136;5.420;2022-12-01T07:31:37;103111.50;;;2.70;94.86
72061;BME280;59925;52.136;5.420;2022-12-01T07:34:05;103122.09;;;2.70;94.91
72061;BME280;59925;52.136;5.420;2022-12-01T07:36:31;103123.91;;;2.70;94.66
72061;BME280;59925;52.136;5.420;2022-12-01T07:38:58;103122.25;;;2.69;94.75
72061;BME280;59925;52.136;5.420;2022-12-01T07:41:24;103117.81;;;2.69;94.62
72061;BME280;59925;52.136;5.420;2022-12-01T07:43:51;103122.91;;;2.71;95.00
72061;BME280;59925;52.136;5.420;2022-12-01T07:46:19;103135.00;;;2.73;95.16
72061;BME280;59925;52.136;5.420;2022-12-01T07:48:49;103122.44;;;2.75;95.08
72061;BME280;59925;52.136;5.420;2022-12-01T07:51:16;103125.59;;;2.79;95.17
72061;BME280;59925;52.136;5.420;2022-12-01T07:53:47;103133.41;;;2.81;95.82
72061;BME280;59925;52.136;5.420;2022-12-01T07:56:15;103133.22;;;2.82;95.71
72061;BME280;59925;52.136;5.420;2022-12-01T07:58:41;103133.72;;;2.86;95.39
72061;BME280;59925;52.136;5.420;2022-12-01T08:01:19;103130.44;;;2.92;95.76
72061;BME280;59925;52.136;5.420;2022-12-01T08:03:54;103137.72;;;2.98;95.64
72061;BME280;59925;52.136;5.420;2022-12-01T08:06:22;103135.25;;;3.05;96.11
72061;BME280;59925;52.136;5.420;2022-12-01T08:08:49;103135.44;;;3.12;95.77
72061;BME280;59925;52.136;5.420;2022-12-01T08:11:21;103143.75;;;3.17;96.55
72061;BME280;59925;52.136;5.420;2022-12-01T08:13:49;103140.47;;;3.23;96.63
72061;BME280;59925;52.136;5.420;2022-12-01T08:16:18;103138.00;;;3.30;96.82
72061;BME280;59925;52.136;5.420;2022-12-01T08:18:45;103140.81;;;3.36;96.42
72061;BME280;59925;52.136;5.420;2022-12-01T08:21:13;103143.78;;;3.42;96.79
72061;BME280;59925;52.136;5.420;2022-12-01T08:23:41;103145.78;;;3.48;96.46
72061;BME280;59925;52.136;5.420;2022-12-01T08:26:14;103134.69;;;3.52;96.50
72061;BME280;59925;52.136;5.420;2022-12-01T08:28:41;103148.25;;;3.58;97.30
72061;BME280;59925;52.136;5.420;2022-12-01T08:31:26;103145.97;;;3.63;97.26
72061;BME280;59925;52.136;5.420;2022-12-01T08:33:53;103142.47;;;3.71;96.96
72061;BME280;59925;52.136;5.420;2022-12-01T08:36:20;103147.28;;;3.75;97.20
72061;BME280;59925;52.136;5.420;2022-12-01T08:38:50;103151.28;;;3.79;96.75
72061;BME280;59925;52.136;5.420;2022-12-01T08:41:18;103150.75;;;3.84;96.62
72061;BME280;59925;52.136;5.420;2022-12-01T08:43:45;103157.22;;;3.90;96.80
72061;BME280;59925;52.136;5.420;2022-12-01T08:46:25;103146.78;;;3.96;97.09
72061;BME280;59925;52.136;5.420;2022-12-01T08:48:53;103154.22;;;4.01;96.85
72061;BME280;59925;52.136;5.420;2022-12-01T08:51:20;103151.25;;;4.04;97.32
72061;BME280;59925;52.136;5.420;2022-12-01T08:53:47;103155.03;;;4.10;97.22
72061;BME280;59925;52.136;5.420;2022-12-01T08:56:18;103156.19;;;4.16;97.11
72061;BME280;59925;52.136;5.420;2022-12-01T08:58:45;103151.38;;;4.19;97.30
72061;BME280;59925;52.136;5.420;2022-12-01T09:01:13;103143.72;;;4.24;97.36
72061;BME280;59925;52.136;5.420;2022-12-01T09:03:41;103145.88;;;4.29;97.29
72061;BME280;59925;52.136;5.420;2022-12-01T09:06:14;103154.19;;;4.34;96.82
72061;BME280;59925;52.136;5.420;2022-12-01T09:08:42;103148.50;;;4.37;96.78
72061;BME280;59925;52.136;5.420;2022-12-01T09:11:11;103146.34;;;4.41;97.16
72061;BME280;59925;52.136;5.420;2022-12-01T09:13:38;103152.16;;;4.44;96.55
72061;BME280;59925;52.136;5.420;2022-12-01T09:16:09;103141.19;;;4.48;96.25
72061;BME280;59925;52.136;5.420;2022-12-01T09:18:36;103148.44;;;4.54;96.82
72061;BME280;59925;52.136;5.420;2022-12-01T09:21:11;103146.13;;;4.59;96.70
72061;BME280;59925;52.136;5.420;2022-12-01T09:23:38;103140.81;;;4.59;96.11
72061;BME280;59925;52.136;5.420;2022-12-01T09:26:06;103147.44;;;4.63;96.01
72061;BME280;59925;52.136;5.420;2022-12-01T09:28:38;103150.06;;;4.71;95.79
72061;BME280;59925;52.136;5.420;2022-12-01T09:31:07;103146.06;;;4.75;95.52
72061;BME280;59925;52.136;5.420;2022-12-01T09:33:34;103146.69;;;4.78;95.57
72061;BME280;59925;52.136;5.420;2022-12-01T09:36:01;103142.47;;;4.91;95.50
72061;BME280;59925;52.136;5.420;2022-12-01T09:38:29;103145.22;;;5.06;95.62
72061;BME280;59925;52.136;5.420;2022-12-01T09:40:58;103139.88;;;5.15;95.13
72061;BME280;59925;52.136;5.420;2022-12-01T09:43:28;103145.13;;;5.23;94.70
72061;BME280;59925;52.136;5.420;2022-12-01T09:46:01;103137.25;;;5.30;94.28
72061;BME280;59925;52.136;5.420;2022-12-01T09:48:45;103138.69;;;5.41;94.33
72061;BME280;59925;52.136;5.420;2022-12-01T09:51:17;103134.09;;;5.49;94.15
72061;BME280;59925;52.136;5.420;2022-12-01T09:53:44;103127.91;;;5.57;93.65
72061;BME280;59925;52.136;5.420;2022-12-01T09:56:25;103125.19;;;5.65;93.47
72061;BME280;59925;52.136;5.420;2022-12-01T09:58:53;103122.44;;;5.74;93.03
72061;BME280;59925;52.136;5.420;2022-12-01T10:01:31;103110.69;;;5.83;92.94
72061;BME280;59925;52.136;5.420;2022-12-01T10:04:05;103111.09;;;5.95;92.49
72061;BME280;59925;52.136;5.420;2022-12-01T10:07:00;103108.56;;;6.02;92.40
72061;BME280;59925;52.136;5.420;2022-12-01T10:09:51;103116.00;;;6.06;92.06
72061;BME280;59925;52.136;5.420;2022-12-01T10:12:20;103112.22;;;6.16;92.03
72061;BME280;59925;52.136;5.420;2022-12-01T10:14:59;103114.16;;;6.22;91.64
72061;BME280;59925;52.136;5.420;2022-12-01T10:17:56;103113.16;;;6.38;91.39
72061;BME280;59925;52.136;5.420;2022-12-01T10:20:35;103121.22;;;6.44;91.28
72061;BME280;59925;52.136;5.420;2022-12-01T10:23:34;103130.06;;;6.30;90.95
72061;BME280;59925;52.136;5.420;2022-12-01T10:26:13;103115.28;;;6.27;90.84
72061;BME280;59925;52.136;5.420;2022-12-01T10:28:57;103118.38;;;6.31;90.77
72061;BME280;59925;52.136;5.420;2022-12-01T10:31:35;103123.16;;;6.21;90.68
72061;BME280;59925;52.136;5.420;2022-12-01T10:34:16;103121.97;;;6.23;90.52
72061;BME280;59925;52.136;5.420;2022-12-01T10:36:43;103118.59;;;6.29;90.92
72061;BME280;59925;52.136;5.420;2022-12-01T10:39:30;103117.38;;;6.32;90.64
72061;BME280;59925;52.136;5.420;2022-12-01T10:42:05;103121.03;;;6.31;90.41
72061;BME280;59925;52.136;5.420;2022-12-01T10:44:34;103123.63;;;6.39;90.65
72061;BME280;59925;52.136;5.420;2022-12-01T10:47:01;103121.72;;;6.48;90.40
72061;BME280;59925;52.136;5.420;2022-12-01T10:49:39;103120.31;;;6.52;90.25
72061;BME280;59925;52.136;5.420;2022-12-01T10:52:06;103121.41;;;6.58;89.94
72061;BME280;59925;52.136;5.420;2022-12-01T10:54:50;103122.81;;;6.54;89.65
72061;BME280;59925;52.136;5.420;2022-12-01T10:57:17;103117.63;;;6.52;89.40
72061;BME280;59925;52.136;5.420;2022-12-01T10:59:51;103115.13;;;6.66;89.40
72061;BME280;59925;52.136;5.420;2022-12-01T11:02:22;103110.59;;;6.81;89.40
72061;BME280;59925;52.136;5.420;2022-12-01T11:04:58;103115.44;;;6.93;89.23
72061;BME280;59925;52.136;5.420;2022-12-01T11:07:32;103115.28;;;6.94;88.82
72061;BME280;59925;52.136;5.420;2022-12-01T11:10:12;103110.69;;;7.10;88.66
72061;BME280;59925;52.136;5.420;2022-12-01T11:12:42;103101.03;;;7.30;88.46
72061;BME280;59925;52.136;5.420;2022-12-01T11:15:40;103106.00;;;7.33;87.62
72061;BME280;59925;52.136;5.420;2022-12-01T11:18:34;103103.19;;;7.42;87.52
72061;BME280;59925;52.136;5.420;2022-12-01T11:21:14;103110.94;;;7.58;87.35
72061;BME280;59925;52.136;5.420;2022-12-01T11:23:46;103099.34;;;7.73;86.87
72061;BME280;59925;52.136;5.420;2022-12-01T11:26:24;103105.66;;;7.65;86.45
72061;BME280;59925;52.136;5.420;2022-12-01T11:28:54;103096.91;;;7.78;86.41
72061;BME280;59925;52.136;5.420;2022-12-01T11:31:33;103092.53;;;7.70;86.10
72061;BME280;59925;52.136;5.420;2022-12-01T11:34:01;103097.53;;;7.51;85.77
72061;BME280;59925;52.136;5.420;2022-12-01T11:36:41;103078.91;;;7.58;85.80
72061;BME280;59925;52.136;5.420;2022-12-01T11:39:25;103081.06;;;7.48;85.40
72061;BME280;59925;52.136;5.420;2022-12-01T11:41:58;103077.00;;;7.80;85.48
72061;BME280;59925;52.136;5.420;2022-12-01T11:44:26;103080.16;;;7.91;85.14
72061;BME280;59925;52.136;5.420;2022-12-01T11:47:16;103074.22;;;7.95;84.29
72061;BME280;59925;52.136;5.420;2022-12-01T11:49:56;103074.44;;;8.01;84.18
72061;BME280;59925;52.136;5.420;2022-12-01T11:57:41;103066.19;;;7.95;83.27
72061;BME280;59925;52.136;5.420;2022-12-01T12:05:29;103055.09;;;7.92;83.57
72061;BME280;59925;52.136;5.420;2022-12-01T12:08:21;103053.06;;;7.94;82.94
72061;BME280;59925;52.136;5.420;2022-12-01T12:11:07;103055.41;;;7.75;82.96
72061;BME280;59925;52.136;5.420;2022-12-01T12:13:56;103051.09;;;7.46;83.26
72061;BME280;59925;52.136;5.420;2022-12-01T12:28:23;103049.34;;;7.31;83.59
72061;BME280;59925;52.136;5.420;2022-12-01T12:31:10;103042.94;;;7.54;83.16
72061;BME280;59925;52.136;5.420;2022-12-01T12:53:11;103036.41;;;7.92;81.94
72061;BME280;59925;52.136;5.420;2022-12-01T12:55:43;103031.69;;;7.94;81.77
72061;BME280;59925;52.136;5.420;2022-12-01T12:58:18;103029.31;;;7.77;80.99
72061;BME280;59925;52.136;5.420;2022-12-01T13:00:49;103031.63;;;7.80;81.40
72061;BME280;59925;52.136;5.420;2022-12-01T13:03:41;103029.31;;;7.77;80.71
72061;BME280;59925;52.136;5.420;2022-12-01T13:06:33;103016.53;;;7.66;80.74
72061;BME280;59925;52.136;5.420;2022-12-01T13:09:18;103024.34;;;7.67;81.01
72061;BME280;59925;52.136;5.420;2022-12-01T13:11:56;103031.28;;;7.62;80.84
72061;BME280;59925;52.136;5.420;2022-12-01T13:14:29;103022.38;;;7.55;81.13
72061;BME280;59925;52.136;5.420;2022-12-01T13:17:08;103022.34;;;7.48;81.03
72061;BME280;59925;52.136;5.420;2022-12-01T13:19:36;103025.66;;;7.50;81.75
72061;BME280;59925;52.136;5.420;2022-12-01T13:22:05;103019.97;;;7.60;81.85
72061;BME280;59925;52.136;5.420;2022-12-01T13:24:33;103022.84;;;7.58;81.47
72061;BME280;59925;52.136;5.420;2022-12-01T13:27:04;103023.13;;;7.42;81.18
72061;BME280;59925;52.136;5.420;2022-12-01T13:29:33;103026.91;;;7.26;81.53
72061;BME280;59925;52.136;5.420;2022-12-01T13:32:06;103026.59;;;7.14;81.63
72061;BME280;59925;52.136;5.420;2022-12-01T13:37:04;103026.69;;;6.99;81.76
72061;BME280;59925;52.136;5.420;2022-12-01T13:39:32;103023.75;;;6.94;81.95
72061;BME280;59925;52.136;5.420;2022-12-01T13:42:22;103017.94;;;6.83;82.31
72061;BME280;59925;52.136;5.420;2022-12-01T13:44:58;103021.66;;;6.89;82.58
72061;BME280;59925;52.136;5.420;2022-12-01T14:09:04;102999.22;;;6.40;82.88
72061;BME280;59925;52.136;5.420;2022-12-01T14:11:33;102998.59;;;6.38;83.01
72061;BME280;59925;52.136;5.420;2022-12-01T14:14:17;102994.19;;;6.30;83.08
72061;BME280;59925;52.136;5.420;2022-12-01T14:16:54;102991.28;;;6.25;83.31
72061;BME280;59925;52.136;5.420;2022-12-01T14:19:49;102991.00;;;6.20;83.31
72061;BME280;59925;52.136;5.420;2022-12-01T14:22:39;102994.03;;;6.17;83.45
72061;BME280;59925;52.136;5.420;2022-12-01T14:27:48;102994.97;;;6.09;83.36
72061;BME280;59925;52.136;5.420;2022-12-01T14:39:02;102993.13;;;5.94;83.63
72061;BME280;59925;52.136;5.420;2022-12-01T14:44:08;102996.22;;;5.83;84.00
72061;BME280;59925;52.136;5.420;2022-12-01T14:49:37;103000.47;;;5.77;84.25
72061;BME280;59925;52.136;5.420;2022-12-01T14:52:12;103007.63;;;5.77;83.87
72061;BME280;59925;52.136;5.420;2022-12-01T14:54:47;103000.38;;;5.71;84.21
72061;BME280;59925;52.136;5.420;2022-12-01T14:57:17;102999.09;;;5.66;84.37
72061;BME280;59925;52.136;5.420;2022-12-01T15:00:04;102999.66;;;5.62;84.21
72061;BME280;59925;52.136;5.420;2022-12-01T15:02:31;102993.84;;;5.58;84.46
72061;BME280;59925;52.136;5.420;2022-12-01T15:05:25;103000.38;;;5.56;84.24
72061;BME280;59925;52.136;5.420;2022-12-01T15:07:57;102997.41;;;5.50;84.66
72061;BME280;59925;52.136;5.420;2022-12-01T15:10:55;103005.28;;;5.44;85.06
72061;BME280;59925;52.136;5.420;2022-12-01T15:13:29;103004.69;;;5.42;84.78
72061;BME280;59925;52.136;5.420;2022-12-01T15:15:59;103002.72;;;5.35;85.24
72061;BME280;59925;52.136;5.420;2022-12-01T15:18:28;103003.91;;;5.33;85.40